This is the latest recevied weather packets stored in our database for station/object HA2SKA-1. If no packets are shown the sender has not sent any weather packets the latest 10 day(s).
| Time | Temp. | Humidity | Pressure | Rain* | Wind** | Luminosity | Snow |
|---|---|---|---|---|---|---|---|
| 1778217344 | 13.89° C | 80% | 1018.9 hPa | - | - | - | - |
| 1778216444 | 15° C | 72% | 1019 hPa | - | - | - | - |
| 1778215544 | 15° C | 71% | 1019 hPa | - | - | - | - |
| 1778214644 | 12.22° C | 79% | 1019 hPa | - | - | - | - |
| 1778213744 | 11.67° C | 82% | 1018.7 hPa | - | - | - | - |
| 1778212843 | 10° C | 87% | 1018.5 hPa | - | - | - | - |
| 1778211943 | 9.44° C | 89% | 1018.4 hPa | - | - | - | - |
| 1778211043 | 10.56° C | 85% | 1018.3 hPa | - | - | - | - |
| 1778210143 | 10.56° C | 88% | 1018.2 hPa | - | - | - | - |
| 1778209243 | 10.56° C | 98% | 1018.2 hPa | - | - | - | - |
| 1778208343 | 10.56° C | 100% | 1018.2 hPa | - | - | - | - |
| 1778207443 | 9.44° C | 100% | 1018 hPa | - | - | - | - |
| 1778206543 | 9.44° C | 96% | 1018 hPa | - | - | - | - |
| 1778205643 | 10° C | 97% | 1017.9 hPa | - | - | - | - |
| 1778204743 | 11.67° C | 87% | 1018 hPa | - | - | - | - |
| 1778203842 | 12.22° C | 84% | 1018 hPa | - | - | - | - |
| 1778202942 | 11.67° C | 97% | 1017.9 hPa | - | - | - | - |
| 1778202042 | 11.67° C | 100% | 1017.8 hPa | - | - | - | - |
| 1778201142 | 11.11° C | 100% | 1017.8 hPa | - | - | - | - |
| 1778200242 | 11.67° C | 100% | 1018 hPa | - | - | - | - |
| 1778199342 | 11.11° C | 100% | 1017.9 hPa | - | - | - | - |
| 1778198442 | 11.11° C | 97% | 1018.1 hPa | - | - | - | - |
| 1778197542 | 11.67° C | 90% | 1017.7 hPa | - | - | - | - |
| 1778196642 | 13.89° C | 76% | 1017.5 hPa | - | - | - | - |
| 1778195742 | 13.89° C | 75% | 1017.4 hPa | - | - | - | - |
* Rain since midnight (hover to see other rain measurements)
** Current wind speed in m/s (hover to see current wind gust speed)